Time;durP1;ratioP1;P1;durP2;ratioP2;P2;SDS_P1;SDS_P2;PMS_P1;PMS_P2;Temp;Humidity;BMP_temperature;BMP_pressure;BME280_temperature;BME280_humidity;BME280_pressure;Samples;Min_cycle;Max_cycle;Signal;HPM_P1;HPM_P2
2023/03/01 00:00:10;;;;;;;31.15;13.63;;;;;;;-3.30;100.00;99478.06;2550856;29;20051;-81
2023/03/01 00:01:37;;;;;;;31.58;13.10;;;;;;;-3.31;100.00;99482.31;2550107;29;20092;-81
2023/03/01 00:02:53;;;;;;;34.15;13.10;;;;;;;-3.23;100.00;99479.19;2550765;29;20056;-82
2023/03/01 00:04:08;;;;;;;40.17;14.82;;;;;;;-3.17;100.00;99476.94;2551663;29;20051;-81
2023/03/01 00:05:24;;;;;;;33.05;13.05;;;;;;;-3.45;100.00;99483.38;2551512;29;20123;-82
2023/03/01 00:06:42;;;;;;;28.77;12.73;;;;;;;-3.49;100.00;99478.91;2550029;29;20114;-81
2023/03/01 00:07:58;;;;;;;31.02;12.77;;;;;;;-3.52;100.00;99482.22;2551244;29;20071;-81
2023/03/01 00:09:14;;;;;;;33.55;12.45;;;;;;;-3.57;100.00;99481.13;2551069;29;20056;-80
2023/03/01 00:10:30;;;;;;;36.40;14.13;;;;;;;-3.59;100.00;99482.75;2551211;29;20509;-82
2023/03/01 00:11:46;;;;;;;35.60;14.35;;;;;;;-3.52;100.00;99484.78;2540009;29;20090;-81
2023/03/01 00:13:02;;;;;;;33.00;14.27;;;;;;;-3.37;100.00;99476.91;2544543;29;20043;-82
2023/03/01 00:14:17;;;;;;;35.83;14.60;;;;;;;-3.29;100.00;99478.13;2550965;29;20055;-81
2023/03/01 00:15:34;;;;;;;43.97;15.93;;;;;;;-3.34;100.00;99482.19;2551848;29;20523;-81
2023/03/01 00:16:50;;;;;;;38.63;15.38;;;;;;;-3.56;100.00;99483.75;2551923;29;20142;-84
2023/03/01 00:18:06;;;;;;;42.67;15.95;;;;;;;-3.55;100.00;99489.78;2550237;29;20059;-82
2023/03/01 00:19:22;;;;;;;37.08;14.82;;;;;;;-3.58;100.00;99482.81;2550713;29;20056;-81
2023/03/01 00:20:37;;;;;;;42.53;16.20;;;;;;;-3.84;100.00;99484.19;2550237;29;20055;-81
2023/03/01 00:21:53;;;;;;;47.88;17.10;;;;;;;-3.58;100.00;99487.94;2551434;29;20054;-81
2023/03/01 00:23:09;;;;;;;36.50;15.18;;;;;;;-3.59;100.00;99487.84;2550688;29;20055;-86
2023/03/01 00:24:24;;;;;;;41.70;15.00;;;;;;;-3.81;100.00;99486.00;2551763;29;20490;-83
2023/03/01 00:25:43;;;;;;;39.50;14.93;;;;;;;-3.65;100.00;99482.47;2552552;29;20063;-82
2023/03/01 00:26:59;;;;;;;37.60;15.02;;;;;;;-3.94;100.00;99485.41;2551018;29;20058;-81
2023/03/01 00:28:15;;;;;;;40.05;15.85;;;;;;;-3.87;100.00;99482.34;2551547;29;20051;-81
2023/03/01 00:29:30;;;;;;;41.60;15.90;;;;;;;-3.77;100.00;99485.31;2541159;29;20118;-81
2023/03/01 00:30:46;;;;;;;42.65;16.02;;;;;;;-3.63;100.00;99485.97;2544815;29;20078;-81
2023/03/01 00:32:02;;;;;;;35.75;14.82;;;;;;;-3.89;100.00;99483.97;2550002;29;20048;-88
2023/03/01 00:33:18;;;;;;;37.25;15.32;;;;;;;-3.88;100.00;99480.59;2549539;29;20513;-82
2023/03/01 00:34:33;;;;;;;35.70;15.55;;;;;;;-3.89;100.00;99478.84;2551115;29;20059;-81
2023/03/01 00:35:49;;;;;;;41.03;16.70;;;;;;;-3.96;100.00;99471.69;2551886;29;20055;-81
2023/03/01 00:37:05;;;;;;;39.08;15.73;;;;;;;-4.03;100.00;99478.19;2551868;29;20130;-83
2023/03/01 00:38:20;;;;;;;40.00;14.50;;;;;;;-3.87;100.00;99472.13;2551483;29;20063;-81
2023/03/01 00:39:36;;;;;;;36.83;15.77;;;;;;;-3.93;100.00;99471.81;2549278;29;20175;-81
2023/03/01 00:40:52;;;;;;;37.38;14.88;;;;;;;-3.81;100.00;99470.63;2550410;28;20094;-81
2023/03/01 00:42:08;;;;;;;39.28;16.48;;;;;;;-3.81;100.00;99476.66;2551351;29;20048;-84
2023/03/01 00:43:23;;;;;;;40.15;14.43;;;;;;;-4.08;100.00;99477.09;2551540;29;20142;-81
2023/03/01 00:44:39;;;;;;;37.45;15.13;;;;;;;-4.09;100.00;99472.81;2550092;29;20069;-80
2023/03/01 00:45:55;;;;;;;43.90;16.35;;;;;;;-4.06;100.00;99466.94;2552516;29;20438;-81
2023/03/01 00:47:10;;;;;;;34.83;13.35;;;;;;;-4.25;100.00;99468.63;2549631;29;20531;-82
2023/03/01 00:48:26;;;;;;;35.00;14.20;;;;;;;-4.00;100.00;99464.69;2550484;29;20682;-81
2023/03/01 00:49:41;;;;;;;35.05;13.07;;;;;;;-3.89;100.00;99460.06;2550586;29;20107;-81
2023/03/01 00:50:57;;;;;;;31.38;12.60;;;;;;;-4.04;100.00;99455.97;2551452;29;20050;-81
2023/03/01 00:52:13;;;;;;;34.58;14.25;;;;;;;-3.89;100.00;99455.81;2551067;29;20082;-81
2023/03/01 00:53:28;;;;;;;34.67;13.00;;;;;;;-3.78;100.00;99451.19;2550696;29;20618;-86
2023/03/01 00:54:44;;;;;;;42.67;16.15;;;;;;;-4.00;100.00;99451.88;2540041;29;20055;-81
2023/03/01 00:55:59;;;;;;;56.70;19.23;;;;;;;-3.85;100.00;99449.16;2525073;29;20061;-81
2023/03/01 00:57:15;;;;;;;43.97;16.33;;;;;;;-4.11;100.00;99452.25;2538751;29;20047;-83
2023/03/01 00:58:31;;;;;;;46.38;17.50;;;;;;;-4.01;100.00;99462.94;2549216;29;20570;-82
2023/03/01 00:59:47;;;;;;;41.28;15.52;;;;;;;-3.95;100.00;99458.09;2549544;29;20058;-81
2023/03/01 01:01:29;;;;;;;43.20;15.48;;;;;;;-4.06;100.00;99460.16;2549627;29;20052;-83
2023/03/01 01:02:46;;;;;;;40.05;14.02;;;;;;;-4.39;100.00;99460.31;2548089;29;20059;-82
2023/03/01 01:04:10;;;;;;;49.65;15.77;;;;;;;-4.45;100.00;99458.31;2550821;29;20490;-80
2023/03/01 01:05:25;;;;;;;41.00;14.75;;;;;;;-4.48;100.00;99454.72;2550251;29;20490;-83
2023/03/01 01:06:44;;;;;;;40.55;13.88;;;;;;;-4.33;100.00;99452.91;2550597;29;20055;-82
2023/03/01 01:08:00;;;;;;;35.22;13.25;;;;;;;-4.35;100.00;99457.09;2550559;29;20138;-82
2023/03/01 01:09:17;;;;;;;41.17;15.38;;;;;;;-4.26;100.00;99454.97;2549810;29;20134;-87
2023/03/01 01:10:35;;;;;;;41.72;15.27;;;;;;;-4.14;100.00;99449.56;2551224;29;20479;-82
2023/03/01 01:11:51;;;;;;;38.40;14.73;;;;;;;-4.06;100.00;99449.91;2552196;29;20054;-82
2023/03/01 01:13:07;;;;;;;32.67;14.05;;;;;;;-4.29;100.00;99451.38;2550238;29;20597;-82
2023/03/01 01:14:22;;;;;;;36.55;14.35;;;;;;;-4.06;100.00;99451.59;2550936;29;20083;-87
2023/03/01 01:15:39;;;;;;;42.85;14.90;;;;;;;-4.00;100.00;99454.44;2551998;29;20047;-81
2023/03/01 01:16:55;;;;;;;37.72;16.15;;;;;;;-3.91;100.00;99454.00;2550796;29;20487;-81
2023/03/01 01:18:10;;;;;;;44.45;17.05;;;;;;;-4.10;100.00;99455.69;2551619;29;20051;-82
2023/03/01 01:19:26;;;;;;;43.85;17.88;;;;;;;-3.86;100.00;99453.41;2550225;29;20094;-80
2023/03/01 01:20:42;;;;;;;48.97;18.85;;;;;;;-3.87;100.00;99451.66;2550918;29;20086;-81
2023/03/01 01:21:57;;;;;;;50.47;18.80;;;;;;;-3.81;100.00;99447.59;2551156;29;20056;-82
2023/03/01 01:23:13;;;;;;;41.35;17.52;;;;;;;-3.85;100.00;99450.03;2550770;29;20058;-82
2023/03/01 01:24:29;;;;;;;47.60;17.67;;;;;;;-4.01;100.00;99442.47;2550468;29;20052;-84
2023/03/01 01:25:45;;;;;;;47.05;18.40;;;;;;;-3.98;100.00;99437.47;2550357;29;20055;-81
2023/03/01 01:27:00;;;;;;;46.40;17.92;;;;;;;-4.32;100.00;99435.91;2550313;29;20052;-81
2023/03/01 01:28:16;;;;;;;42.83;17.85;;;;;;;-4.19;100.00;99442.47;2550071;29;20058;-82
2023/03/01 01:29:31;;;;;;;43.67;16.90;;;;;;;-4.22;100.00;99437.22;2551213;29;21029;-81
2023/03/01 01:30:47;;;;;;;47.15;18.58;;;;;;;-4.17;100.00;99439.19;2551749;29;20243;-83
2023/03/01 01:32:03;;;;;;;43.72;17.13;;;;;;;-4.17;100.00;99436.63;2550221;29;20118;-84
2023/03/01 01:33:18;;;;;;;42.78;17.60;;;;;;;-4.19;100.00;99429.69;2550101;29;20051;-81
2023/03/01 01:34:34;;;;;;;42.60;16.45;;;;;;;-4.38;100.00;99431.38;2549083;29;20051;-84
2023/03/01 01:35:50;;;;;;;41.15;15.45;;;;;;;-4.57;100.00;99429.59;2550283;29;20087;-81
2023/03/01 01:37:07;;;;;;;40.53;15.27;;;;;;;-4.72;100.00;99425.50;2551427;29;20051;-81
2023/03/01 01:38:23;;;;;;;40.92;16.65;;;;;;;-4.55;100.00;99433.97;2550188;29;20052;-81
2023/03/01 01:39:38;;;;;;;41.20;16.45;;;;;;;-4.54;100.00;99430.66;2549777;29;20159;-82
2023/03/01 01:40:54;;;;;;;37.75;15.60;;;;;;;-4.57;100.00;99427.06;2550891;29;20055;-82
2023/03/01 01:42:16;;;;;;;43.88;15.88;;;;;;;-4.55;100.00;99422.88;2549734;29;20070;-82
2023/03/01 01:43:40;;;;;;;41.85;15.75;;;;;;;-4.53;100.00;99421.28;2551407;29;20110;-81
2023/03/01 01:45:47;;;;;;;42.05;16.27;;;;;;;-4.51;100.00;99416.25;2549417;29;20059;-82
2023/03/01 01:47:05;;;;;;;37.75;13.57;;;;;;;-4.51;100.00;99418.81;2524647;29;20076;-81
2023/03/01 01:48:27;;;;;;;39.88;14.27;;;;;;;-4.48;100.00;99418.94;2549904;29;20131;-82
2023/03/01 01:49:50;;;;;;;34.38;13.90;;;;;;;-4.64;100.00;99410.53;2549716;29;20568;-81
2023/03/01 01:51:12;;;;;;;38.20;14.40;;;;;;;-4.44;100.00;99408.94;2552011;29;20059;-81
2023/03/01 01:52:35;;;;;;;36.92;13.95;;;;;;;-4.35;100.00;99412.72;2551650;29;20044;-81
2023/03/01 01:53:57;;;;;;;38.20;14.25;;;;;;;-4.28;100.00;99414.78;2551843;29;20051;-81
2023/03/01 01:55:27;;;;;;;36.47;13.82;;;;;;;-4.29;100.00;99410.47;2552721;29;20138;-81
2023/03/01 01:56:47;;;;;;;38.13;14.10;;;;;;;-4.29;100.00;99413.03;2553992;29;20071;-82
2023/03/01 01:58:08;;;;;;;34.47;13.90;;;;;;;-4.23;100.00;99415.00;2554034;29;20207;-81
2023/03/01 01:59:25;;;;;;;38.42;14.02;;;;;;;-4.28;100.00;99409.69;2541727;29;20464;-81
2023/03/01 02:00:40;;;;;;;38.25;14.98;;;;;;;-4.21;100.00;99416.81;2535104;29;20064;-81
2023/03/01 02:01:59;;;;;;;39.83;15.82;;;;;;;-4.17;100.00;99415.28;2546533;29;20463;-82
2023/03/01 02:03:25;;;;;;;41.40;15.75;;;;;;;-4.18;100.00;99416.97;2553354;29;20487;-80
2023/03/01 02:04:41;;;;;;;37.40;15.15;;;;;;;-4.23;100.00;99405.63;2553254;29;20084;-82
2023/03/01 02:06:03;;;;;;;35.15;14.52;;;;;;;-4.14;100.00;99412.88;2552777;29;20143;-82
2023/03/01 02:07:23;;;;;;;34.25;14.13;;;;;;;-4.35;100.00;99410.16;2550854;29;20419;-82
2023/03/01 02:08:42;;;;;;;37.13;15.57;;;;;;;-4.44;100.00;99408.06;2553910;29;20410;-82
2023/03/01 02:09:58;;;;;;;36.17;15.00;;;;;;;-4.38;100.00;99412.59;2551994;29;20090;-82
2023/03/01 02:11:14;;;;;;;35.53;13.55;;;;;;;-4.73;100.00;99412.66;2553029;29;20090;-83
2023/03/01 02:12:30;;;;;;;34.75;14.40;;;;;;;-4.61;100.00;99409.78;2554026;29;20070;-81
2023/03/01 02:13:48;;;;;;;39.50;14.65;;;;;;;-4.45;100.00;99408.88;2553924;29;20126;-81
2023/03/01 02:15:04;;;;;;;43.80;15.75;;;;;;;-4.58;100.00;99409.97;2552383;29;20062;-82
2023/03/01 02:16:20;;;;;;;37.95;15.00;;;;;;;-4.47;100.00;99403.69;2551304;29;20127;-81
2023/03/01 02:17:37;;;;;;;35.00;14.02;;;;;;;-4.69;100.00;99400.09;2551773;29;20063;-84
2023/03/01 02:18:53;;;;;;;37.35;14.52;;;;;;;-4.59;100.00;99400.56;2552438;29;20056;-82
2023/03/01 02:20:12;;;;;;;38.33;13.60;;;;;;;-4.62;100.00;99403.81;2553916;29;20134;-81
2023/03/01 02:22:20;;;;;;;33.95;13.93;;;;;;;-4.78;100.00;99403.88;2551812;29;20056;-81
2023/03/01 02:23:36;;;;;;;31.75;12.95;;;;;;;-4.81;100.00;99407.16;2513104;29;20049;-82
2023/03/01 02:25:27;;;;;;;36.17;13.07;;;;;;;-4.92;100.00;99406.63;2511054;29;20057;-84
2023/03/01 02:26:48;;;;;;;37.50;13.07;;;;;;;-4.74;100.00;99408.34;2512460;29;20144;-83
2023/03/01 02:28:15;;;;;;;33.90;13.52;;;;;;;-5.07;100.00;99403.31;2510163;29;20080;-87
2023/03/01 02:29:31;;;;;;;31.65;13.57;;;;;;;-4.99;100.00;99400.34;2551329;29;20474;-81
2023/03/01 02:32:24;;;;;;;33.55;12.55;;;;;;;-5.01;100.00;99401.06;2553798;29;20129;-81
2023/03/01 02:33:42;;;;;;;36.22;13.85;;;;;;;-5.23;100.00;99397.44;2551576;29;20098;-82
2023/03/01 02:34:57;;;;;;;38.83;14.05;;;;;;;-5.04;100.00;99401.78;2550946;29;20082;-83
2023/03/01 02:36:18;;;;;;;38.15;14.27;;;;;;;-4.97;100.00;99401.28;2551884;29;20099;-82
2023/03/01 02:37:35;;;;;;;36.80;14.10;;;;;;;-5.08;100.00;99399.88;2552734;29;20574;-80
2023/03/01 02:38:55;;;;;;;33.58;13.68;;;;;;;-5.08;100.00;99393.91;2552127;29;20142;-81
2023/03/01 02:40:17;;;;;;;32.45;13.73;;;;;;;-4.97;100.00;99393.63;2551977;29;20051;-82
2023/03/01 02:41:36;;;;;;;35.78;13.52;;;;;;;-4.87;100.00;99396.66;2551809;29;20073;-85
2023/03/01 02:42:55;;;;;;;31.42;12.57;;;;;;;-5.14;100.00;99392.78;2550852;29;20059;-82
2023/03/01 02:44:11;;;;;;;34.63;13.18;;;;;;;-4.87;100.00;99397.50;2551758;29;20366;-83
2023/03/01 02:45:27;;;;;;;33.30;12.55;;;;;;;-4.92;100.00;99398.09;2553457;29;20047;-82
2023/03/01 02:46:46;;;;;;;36.38;12.70;;;;;;;-5.12;100.00;99393.72;2553524;29;20066;-82
2023/03/01 02:48:02;;;;;;;39.85;14.50;;;;;;;-5.05;100.00;99389.81;2550954;29;20358;-83
2023/03/01 02:49:30;;;;;;;34.47;13.48;;;;;;;-4.83;100.00;99388.34;2550751;29;20499;-82
2023/03/01 02:51:03;;;;;;;34.80;13.27;;;;;;;-4.86;100.00;99393.28;2552875;29;20630;-84
2023/03/01 02:52:33;;;;;;;32.15;13.30;;;;;;;-4.85;100.00;99392.50;2551901;29;20051;-82
2023/03/01 02:54:07;;;;;;;32.75;12.60;;;;;;;-4.77;100.00;99393.72;2552613;29;20489;-84
2023/03/01 02:55:23;;;;;;;31.67;12.63;;;;;;;-4.72;100.00;99393.94;2552958;29;20114;-82
2023/03/01 02:56:40;;;;;;;31.17;13.50;;;;;;;-4.85;100.00;99390.78;2552174;29;20055;-83
2023/03/01 02:57:56;;;;;;;31.90;12.60;;;;;;;-5.05;100.00;99392.38;2551232;29;20059;-83
2023/03/01 02:59:12;;;;;;;40.42;14.20;;;;;;;-5.02;100.00;99395.09;2552550;29;20130;-83
2023/03/01 03:00:35;;;;;;;35.45;13.27;;;;;;;-5.00;100.00;99393.50;2550304;29;20055;-82
2023/03/01 03:01:51;;;;;;;33.13;10.68;;;;;;;-4.95;100.00;99393.72;2552762;29;20110;-82
2023/03/01 03:03:07;;;;;;;34.22;13.35;;;;;;;-4.85;100.00;99395.91;2549878;28;20052;-81
2023/03/01 03:04:23;;;;;;;37.20;13.80;;;;;;;-4.84;100.00;99397.66;2550353;29;20051;-82
2023/03/01 03:05:38;;;;;;;37.92;14.13;;;;;;;-4.79;100.00;99397.03;2551661;29;20084;-82
2023/03/01 03:06:54;;;;;;;34.38;13.02;;;;;;;-4.94;100.00;99397.13;2541922;29;20086;-84
2023/03/01 03:08:11;;;;;;;33.50;12.63;;;;;;;-4.84;100.00;99397.66;2544019;29;20054;-83
2023/03/01 03:09:26;;;;;;;34.95;12.25;;;;;;;-4.61;100.00;99403.03;2549970;29;20152;-82
2023/03/01 03:10:45;;;;;;;35.28;13.13;;;;;;;-4.63;100.00;99399.53;2552103;29;20482;-81
2023/03/01 03:12:00;;;;;;;28.75;12.27;;;;;;;-4.55;100.00;99399.88;2552314;29;20050;-81
2023/03/01 03:13:16;;;;;;;33.53;13.05;;;;;;;-4.50;100.00;99398.41;2551038;29;20048;-82
2023/03/01 03:14:34;;;;;;;26.33;11.18;;;;;;;-4.58;100.00;99398.06;2551355;29;20051;-85
2023/03/01 03:15:50;;;;;;;32.72;12.77;;;;;;;-4.66;100.00;99393.38;2550283;29;20074;-82
2023/03/01 03:17:06;;;;;;;36.13;13.18;;;;;;;-4.84;100.00;99396.78;2551188;29;20051;-82
2023/03/01 03:18:25;;;;;;;39.17;14.27;;;;;;;-4.80;100.00;99398.69;2553151;29;20562;-84
2023/03/01 03:19:45;;;;;;;33.70;11.73;;;;;;;-4.71;100.00;99396.59;2551422;29;20142;-84
2023/03/01 03:21:00;;;;;;;30.42;12.25;;;;;;;-4.54;100.00;99393.97;2532026;29;20138;-82
2023/03/01 03:22:16;;;;;;;35.25;11.55;;;;;;;-4.54;100.00;99397.41;2538612;29;20055;-82
2023/03/01 03:23:31;;;;;;;31.85;11.32;;;;;;;-4.85;100.00;99397.59;2552065;29;20382;-83
2023/03/01 03:24:47;;;;;;;38.50;14.13;;;;;;;-4.70;100.00;99392.34;2550933;29;20055;-82
2023/03/01 03:26:04;;;;;;;34.45;13.15;;;;;;;-4.67;100.00;99389.97;2550764;29;20517;-82
2023/03/01 03:27:19;;;;;;;32.55;12.45;;;;;;;-4.85;100.00;99392.50;2551574;29;20055;-83
2023/03/01 03:28:35;;;;;;;36.45;14.10;;;;;;;-5.24;100.00;99388.00;2550861;29;20498;-81
2023/03/01 03:29:51;;;;;;;34.45;13.25;;;;;;;-5.15;100.00;99395.28;2550340;29;20094;-82
2023/03/01 03:31:07;;;;;;;32.47;14.23;;;;;;;-4.88;100.00;99393.22;2550821;29;20491;-82
2023/03/01 03:32:23;;;;;;;36.33;13.65;;;;;;;-4.89;100.00;99388.00;2550293;29;20494;-82
2023/03/01 03:33:38;;;;;;;31.45;12.15;;;;;;;-5.14;100.00;99389.38;2550852;29;20470;-82
2023/03/01 03:34:54;;;;;;;37.58;14.10;;;;;;;-5.15;100.00;99388.47;2549864;29;20427;-82
2023/03/01 03:36:17;;;;;;;35.80;13.15;;;;;;;-5.26;100.00;99381.94;2552115;29;20056;-82
2023/03/01 03:39:06;;;;;;;32.97;13.07;;;;;;;-5.36;100.00;99385.72;2552104;29;20150;-82
2023/03/01 03:40:22;;;;;;;31.98;11.68;;;;;;;-5.14;100.00;99381.72;2552262;29;20148;-82
2023/03/01 03:41:38;;;;;;;29.33;12.02;;;;;;;-5.12;100.00;99378.41;2552072;29;20067;-82
2023/03/01 03:42:54;;;;;;;33.67;12.70;;;;;;;-5.22;100.00;99371.13;2551599;29;20129;-82
2023/03/01 03:44:10;;;;;;;33.55;12.27;;;;;;;-5.07;100.00;99373.53;2551338;29;21112;-85
2023/03/01 03:45:25;;;;;;;35.78;11.85;;;;;;;-5.00;100.00;99375.63;2552921;29;20114;-82
2023/03/01 03:46:41;;;;;;;36.22;12.88;;;;;;;-5.09;100.00;99371.75;2550476;29;20401;-85
2023/03/01 03:47:56;;;;;;;36.88;13.50;;;;;;;-5.09;100.00;99370.03;2549912;29;20118;-83
2023/03/01 03:49:12;;;;;;;37.13;13.88;;;;;;;-5.51;100.00;99372.19;2550058;29;20062;-83
2023/03/01 03:50:28;;;;;;;36.55;13.85;;;;;;;-5.08;100.00;99373.50;2552213;29;20503;-82
2023/03/01 03:51:46;;;;;;;43.83;17.65;;;;;;;-4.94;100.00;99366.50;2550392;29;20048;-82
2023/03/01 03:53:04;;;;;;;47.45;17.20;;;;;;;-5.11;100.00;99367.41;2541639;29;20047;-82
2023/03/01 03:54:20;;;;;;;44.95;17.08;;;;;;;-4.96;100.00;99367.28;2544927;29;20051;-82
2023/03/01 03:55:38;;;;;;;49.20;17.90;;;;;;;-4.90;100.00;99374.38;2552441;29;20418;-81
2023/03/01 03:56:54;;;;;;;39.08;15.50;;;;;;;-5.27;100.00;99370.88;2552877;29;20055;-81
2023/03/01 03:58:10;;;;;;;47.08;16.85;;;;;;;-5.19;100.00;99367.81;2551199;29;20162;-81
2023/03/01 03:59:26;;;;;;;61.30;19.25;;;;;;;-5.21;100.00;99371.97;2550796;29;20542;-87
2023/03/01 04:00:44;;;;;;;48.80;18.00;;;;;;;-5.46;100.00;99379.28;2551817;29;20082;-82
2023/03/01 04:02:00;;;;;;;53.13;19.63;;;;;;;-5.25;100.00;99370.94;2549994;29;20071;-81
2023/03/01 04:03:18;;;;;;;57.97;19.23;;;;;;;-5.22;100.00;99378.78;2550652;29;20051;-82
2023/03/01 04:04:34;;;;;;;58.72;20.05;;;;;;;-5.26;100.00;99370.09;2551429;29;20051;-82
2023/03/01 04:05:50;;;;;;;63.45;20.70;;;;;;;-5.32;100.00;99372.31;2550996;29;20059;-81
2023/03/01 04:07:06;;;;;;;60.17;21.80;;;;;;;-4.97;100.00;99368.09;2551773;29;20175;-82
2023/03/01 04:08:22;;;;;;;57.88;20.63;;;;;;;-4.92;100.00;99373.44;2538925;29;20080;-81
2023/03/01 04:09:38;;;;;;;53.50;19.90;;;;;;;-5.25;100.00;99370.94;2546073;29;20081;-84
2023/03/01 04:11:25;;;;;;;44.08;17.05;;;;;;;-4.90;100.00;99369.28;2539299;29;20048;-81
2023/03/01 04:12:36;;;;;;;45.22;16.08;;;;;;;-4.91;100.00;99376.84;2549755;29;20067;-84
2023/03/01 04:13:53;;;;;;;38.35;15.57;;;;;;;-5.18;100.00;99375.56;2551387;29;20491;-83
2023/03/01 04:15:13;;;;;;;34.13;14.95;;;;;;;-5.22;100.00;99370.22;2550853;29;20055;-81
2023/03/01 04:16:29;;;;;;;41.50;16.35;;;;;;;-4.98;100.00;99371.44;2545378;29;20074;-81
2023/03/01 04:17:46;;;;;;;40.50;15.88;;;;;;;-5.03;100.00;99366.91;2536917;29;20051;-81
2023/03/01 04:19:02;;;;;;;46.58;15.77;;;;;;;-4.74;100.00;99362.34;2545890;29;20451;-84
2023/03/01 04:20:24;;;;;;;41.50;15.82;;;;;;;-4.81;100.00;99368.84;2551748;29;20051;-83
2023/03/01 04:21:40;;;;;;;39.95;13.77;;;;;;;-4.92;100.00;99370.88;2550480;29;20047;-82
2023/03/01 04:23:10;;;;;;;40.88;14.50;;;;;;;-4.81;100.00;99368.84;2538591;29;20499;-82
2023/03/01 04:24:25;;;;;;;37.78;14.43;;;;;;;-4.86;100.00;99366.06;2547587;29;20215;-82
2023/03/01 04:25:54;;;;;;;40.40;15.00;;;;;;;-4.85;100.00;99364.41;2539869;29;20059;-82
2023/03/01 04:27:11;;;;;;;37.60;14.38;;;;;;;-4.74;100.00;99360.69;2545237;29;20059;-81
2023/03/01 04:28:36;;;;;;;35.97;14.10;;;;;;;-4.79;100.00;99364.69;2550987;29;20047;-82
2023/03/01 04:29:51;;;;;;;38.35;13.18;;;;;;;-4.92;100.00;99362.31;2550424;29;20138;-81
2023/03/01 04:31:17;;;;;;;42.42;15.23;;;;;;;-4.74;100.00;99368.34;2551778;29;20055;-81
2023/03/01 04:32:33;;;;;;;38.38;14.65;;;;;;;-4.68;100.00;99367.75;2549514;29;20070;-82
2023/03/01 04:33:52;;;;;;;39.70;13.98;;;;;;;-4.70;100.00;99372.78;2549350;29;20392;-81
2023/03/01 04:35:08;;;;;;;42.25;14.18;;;;;;;-4.69;100.00;99371.09;2549983;29;20093;-85
2023/03/01 04:36:26;;;;;;;36.08;14.80;;;;;;;-4.80;100.00;99365.47;2550675;29;20058;-82
2023/03/01 04:37:41;;;;;;;40.60;16.02;;;;;;;-4.77;100.00;99365.63;2549743;29;21110;-84
2023/03/01 04:38:57;;;;;;;32.70;13.32;;;;;;;-5.15;100.00;99369.75;2550566;29;20062;-82
2023/03/01 04:40:16;;;;;;;39.72;14.20;;;;;;;-5.27;100.00;99368.34;2549652;29;20418;-82
2023/03/01 04:41:31;;;;;;;40.95;13.85;;;;;;;-5.40;100.00;99366.81;2551190;29;20055;-83
2023/03/01 04:42:47;;;;;;;39.78;14.88;;;;;;;-5.30;100.00;99367.28;2548696;29;20044;-80
2023/03/01 04:44:04;;;;;;;34.70;14.68;;;;;;;-5.33;100.00;99365.44;2552342;29;20098;-81
2023/03/01 04:45:20;;;;;;;38.47;14.00;;;;;;;-5.49;100.00;99368.91;2549369;29;20130;-81
2023/03/01 04:46:36;;;;;;;40.88;15.30;;;;;;;-5.28;100.00;99373.34;2549676;29;20048;-80
2023/03/01 04:47:52;;;;;;;39.88;15.82;;;;;;;-5.02;100.00;99361.00;2551251;29;20043;-81
2023/03/01 04:49:07;;;;;;;41.20;14.80;;;;;;;-5.01;100.00;99365.31;2549826;29;20043;-80
2023/03/01 04:50:23;;;;;;;43.92;16.70;;;;;;;-4.95;100.00;99370.75;2552182;29;20125;-81
2023/03/01 04:51:38;;;;;;;44.00;16.58;;;;;;;-4.98;100.00;99368.00;2552269;29;20055;-82
2023/03/01 04:52:58;;;;;;;43.80;15.38;;;;;;;-5.12;100.00;99368.19;2549400;29;20490;-84
2023/03/01 04:54:13;;;;;;;40.67;14.00;;;;;;;-5.29;100.00;99375.03;2550965;29;20059;-85
2023/03/01 04:55:29;;;;;;;38.92;13.52;;;;;;;-5.30;100.00;99373.28;2551158;29;20521;-82
2023/03/01 04:56:45;;;;;;;36.90;15.43;;;;;;;-5.10;100.00;99373.41;2549680;29;20075;-81
2023/03/01 04:58:01;;;;;;;38.22;14.63;;;;;;;-5.01;100.00;99370.41;2549274;29;20044;-82
2023/03/01 04:59:16;;;;;;;36.85;14.35;;;;;;;-5.03;100.00;99364.38;2549078;29;20054;-82
2023/03/01 05:00:32;;;;;;;40.80;15.95;;;;;;;-5.09;100.00;99372.59;2550770;29;20047;-83
2023/03/01 05:01:51;;;;;;;42.92;15.57;;;;;;;-5.07;100.00;99371.00;2551294;29;20047;-82
2023/03/01 05:03:08;;;;;;;38.60;14.93;;;;;;;-5.23;100.00;99374.47;2552161;29;20164;-83
2023/03/01 05:04:24;;;;;;;33.30;13.73;;;;;;;-5.53;100.00;99374.66;2550525;29;20079;-82
2023/03/01 05:05:40;;;;;;;36.70;13.52;;;;;;;-5.67;100.00;99374.81;2552236;29;20052;-82
2023/03/01 05:06:58;;;;;;;37.17;14.18;;;;;;;-5.45;100.00;99375.03;2549732;29;20172;-81
2023/03/01 05:08:17;;;;;;;40.60;14.75;;;;;;;-5.22;100.00;99375.34;2549081;29;20067;-84
2023/03/01 05:09:33;;;;;;;36.03;14.27;;;;;;;-5.17;100.00;99373.88;2551079;29;20331;-83
2023/03/01 05:10:51;;;;;;;36.83;13.63;;;;;;;-5.32;100.00;99368.91;2550079;29;20102;-82
2023/03/01 05:12:07;;;;;;;40.45;16.17;;;;;;;-5.40;100.00;99376.16;2552183;29;20633;-83
2023/03/01 05:13:23;;;;;;;35.97;15.02;;;;;;;-5.29;100.00;99376.69;2549290;29;20056;-83
2023/03/01 05:14:38;;;;;;;37.67;15.90;;;;;;;-5.06;100.00;99374.44;2550104;29;20051;-83
2023/03/01 05:15:55;;;;;;;41.20;15.60;;;;;;;-5.19;100.00;99370.38;2550676;29;20055;-83
2023/03/01 05:17:10;;;;;;;39.90;16.23;;;;;;;-5.22;100.00;99370.22;2551340;29;20055;-83
2023/03/01 05:18:28;;;;;;;44.95;15.32;;;;;;;-5.40;100.00;99366.81;2550475;29;20066;-82
2023/03/01 05:19:43;;;;;;;41.10;15.50;;;;;;;-5.37;100.00;99367.78;2552250;29;20054;-83
2023/03/01 05:21:08;;;;;;;45.85;17.38;;;;;;;-5.16;100.00;99375.66;2549749;29;20082;-82
2023/03/01 05:22:24;;;;;;;41.50;15.15;;;;;;;-5.08;100.00;99368.38;2550338;29;20456;-83
2023/03/01 05:23:40;;;;;;;38.95;15.18;;;;;;;-5.37;100.00;99375.44;2549347;29;20051;-84
2023/03/01 05:24:56;;;;;;;41.78;15.63;;;;;;;-5.37;100.00;99371.22;2548672;29;20075;-86
2023/03/01 05:26:12;;;;;;;42.17;15.43;;;;;;;-5.36;100.00;99370.41;2550357;28;20051;-83
2023/03/01 05:27:29;;;;;;;41.70;14.95;;;;;;;-5.26;100.00;99375.19;2548576;29;20122;-82
2023/03/01 05:28:45;;;;;;;38.25;15.75;;;;;;;-5.30;100.00;99378.41;2549022;29;20451;-83
2023/03/01 05:30:13;;;;;;;40.25;15.77;;;;;;;-5.28;100.00;99375.91;2550973;29;20138;-83
2023/03/01 05:31:30;;;;;;;38.05;14.68;;;;;;;-5.59;100.00;99376.91;2550003;28;20055;-83
2023/03/01 05:32:49;;;;;;;44.88;15.98;;;;;;;-5.51;100.00;99382.38;2550550;29;20094;-82
2023/03/01 05:34:06;;;;;;;41.95;15.30;;;;;;;-5.57;100.00;99381.28;2548493;29;20166;-83
2023/03/01 05:35:21;;;;;;;39.88;14.82;;;;;;;-5.91;100.00;99384.59;2550047;29;20055;-83
2023/03/01 05:36:38;;;;;;;39.75;14.00;;;;;;;-6.13;100.00;99380.97;2549237;29;20510;-82
2023/03/01 05:37:54;;;;;;;38.40;14.32;;;;;;;-5.99;100.00;99380.78;2549941;29;20059;-83
2023/03/01 05:39:09;;;;;;;45.38;16.13;;;;;;;-5.76;100.00;99382.00;2548670;28;20062;-82
2023/03/01 05:40:25;;;;;;;42.00;14.90;;;;;;;-5.74;100.00;99380.41;2549052;28;20143;-82
2023/03/01 05:41:40;;;;;;;45.97;14.77;;;;;;;-5.59;100.00;99377.75;2547929;29;20070;-83
2023/03/01 05:42:56;;;;;;;43.78;15.00;;;;;;;-5.54;100.00;99378.00;2549565;28;20071;-84
2023/03/01 05:44:12;;;;;;;41.33;14.45;;;;;;;-5.41;100.00;99374.41;2548942;29;20100;-82
2023/03/01 05:45:28;;;;;;;40.78;15.80;;;;;;;-5.36;100.00;99375.50;2547935;29;20479;-81
2023/03/01 05:46:44;;;;;;;44.33;15.70;;;;;;;-5.34;100.00;99376.47;2549438;29;20055;-82
2023/03/01 05:48:00;;;;;;;41.00;15.43;;;;;;;-5.54;100.00;99376.34;2549259;29;20047;-82
2023/03/01 05:49:16;;;;;;;35.63;14.65;;;;;;;-5.57;100.00;99373.63;2548249;29;20054;-88
2023/03/01 05:50:37;;;;;;;35.42;13.95;;;;;;;-5.51;100.00;99377.28;2550708;29;20541;-82
2023/03/01 05:51:53;;;;;;;37.13;15.68;;;;;;;-5.48;100.00;99369.78;2549448;29;20051;-81
2023/03/01 05:53:15;;;;;;;38.38;14.02;;;;;;;-5.58;100.00;99376.09;2550726;29;20591;-82
2023/03/01 05:54:31;;;;;;;41.42;14.75;;;;;;;-5.60;100.00;99377.69;2549233;29;20051;-81
2023/03/01 05:55:47;;;;;;;37.17;14.73;;;;;;;-5.56;100.00;99375.38;2549914;28;20058;-81
2023/03/01 05:57:03;;;;;;;38.85;15.10;;;;;;;-5.43;100.00;99370.91;2548302;28;20095;-82